createdAt,value
2023-06-18T00:01:43.042Z,2.00
2023-06-18T00:04:12.302Z,1.75
2023-06-18T00:06:40.885Z,2.75
2023-06-18T00:09:09.413Z,3.25
2023-06-18T00:11:37.869Z,2.00
2023-06-18T00:14:06.355Z,2.00
2023-06-18T00:16:34.818Z,2.00
2023-06-18T00:19:03.496Z,2.50
2023-06-18T00:21:31.996Z,2.00
2023-06-18T00:24:00.586Z,1.00
2023-06-18T00:26:29.341Z,1.00
2023-06-18T00:28:57.792Z,2.00
2023-06-18T00:31:28.025Z,2.00
2023-06-18T00:33:57.730Z,1.00
2023-06-18T00:36:28.470Z,2.00
2023-06-18T00:38:56.914Z,2.00
2023-06-18T00:41:26.645Z,2.25
2023-06-18T00:43:55.303Z,2.00
2023-06-18T00:46:23.849Z,2.00
2023-06-18T00:48:52.827Z,2.00
2023-06-18T00:51:23.422Z,1.00
2023-06-18T00:53:52.924Z,2.00
2023-06-18T00:56:24.273Z,3.00
2023-06-18T00:58:53.486Z,2.50
2023-06-18T01:01:23.410Z,2.75
2023-06-18T01:03:53.037Z,2.50
2023-06-18T01:06:24.137Z,0.75
2023-06-18T01:08:58.213Z,2.75
2023-06-18T01:11:27.956Z,3.00
2023-06-18T01:13:56.419Z,1.75
2023-06-18T01:16:26.699Z,2.75
2023-06-18T01:18:57.150Z,2.50
2023-06-18T01:21:32.848Z,2.75
2023-06-18T01:24:06.844Z,1.00
2023-06-18T01:26:37.588Z,2.00
2023-06-18T01:29:12.151Z,1.75
2023-06-18T01:31:40.608Z,3.00
2023-06-18T01:34:09.907Z,2.50
2023-06-18T01:36:39.633Z,2.00
2023-06-18T01:39:19.391Z,1.75
2023-06-18T01:41:51.244Z,3.00
2023-06-18T01:44:24.182Z,3.00
2023-06-18T01:46:57.225Z,2.00
2023-06-18T01:49:28.278Z,1.00
2023-06-18T01:51:58.998Z,2.75
2023-06-18T01:54:29.306Z,2.75
2023-06-18T01:56:58.803Z,2.25
2023-06-18T01:59:27.966Z,3.00
2023-06-18T02:01:57.041Z,3.25
2023-06-18T02:04:25.523Z,2.00
2023-06-18T02:06:54.046Z,2.25
2023-06-18T02:09:22.551Z,2.75
2023-06-18T02:11:50.966Z,1.50
2023-06-18T02:14:19.467Z,2.50
2023-06-18T02:16:51.011Z,3.00
2023-06-18T02:19:19.495Z,2.00
2023-06-18T02:21:47.961Z,3.00
2023-06-18T02:24:18.918Z,3.00
2023-06-18T02:26:47.610Z,2.75
2023-06-18T02:29:16.142Z,2.75
2023-06-18T02:31:44.661Z,5.00
2023-06-18T02:34:14.326Z,4.75
2023-06-18T02:36:42.797Z,2.00
2023-06-18T02:39:11.258Z,3.50
2023-06-18T02:41:39.975Z,4.50
2023-06-18T02:44:08.443Z,2.75
2023-06-18T02:46:37.050Z,4.00
2023-06-18T02:49:05.656Z,3.00
2023-06-18T02:51:34.114Z,4.25
2023-06-18T02:54:03.109Z,5.75
2023-06-18T02:56:31.528Z,5.00
2023-06-18T02:59:00.920Z,4.50
2023-06-18T03:01:30.196Z,3.25
2023-06-18T03:03:58.749Z,7.00
2023-06-18T03:06:29.421Z,8.50
2023-06-18T03:08:57.892Z,5.00
2023-06-18T03:11:26.410Z,3.00
2023-06-18T03:13:54.883Z,3.00
2023-06-18T03:16:23.394Z,3.00
2023-06-18T03:18:52.399Z,4.00
2023-06-18T03:21:21.564Z,3.00
2023-06-18T03:23:50.405Z,3.00
2023-06-18T03:26:19.386Z,4.25
2023-06-18T03:28:48.941Z,3.00
2023-06-18T03:31:17.711Z,3.00
2023-06-18T03:33:46.243Z,3.00
2023-06-18T03:36:17.763Z,3.50
2023-06-18T03:38:48.176Z,3.00
2023-06-18T03:41:16.890Z,3.25
2023-06-18T03:43:45.399Z,3.00
2023-06-18T03:46:13.863Z,2.75
2023-06-18T03:48:43.677Z,2.75
2023-06-18T03:51:12.342Z,4.50
2023-06-18T03:53:40.961Z,2.50
2023-06-18T03:56:10.464Z,2.00
2023-06-18T03:58:39.272Z,2.25
2023-06-18T04:01:09.479Z,2.00
2023-06-18T04:03:39.328Z,2.75
2023-06-18T04:06:08.758Z,2.75
2023-06-18T04:08:37.346Z,2.75
2023-06-18T04:11:05.875Z,3.25
2023-06-18T04:13:34.374Z,2.25
2023-06-18T04:16:02.912Z,3.00
2023-06-18T04:18:31.800Z,3.25
2023-06-18T04:21:00.258Z,3.00
2023-06-18T04:23:29.933Z,3.75
2023-06-18T04:25:58.384Z,3.00
2023-06-18T04:28:27.173Z,3.75
2023-06-18T04:30:55.667Z,3.00
2023-06-18T04:33:25.394Z,4.00
2023-06-18T04:35:53.890Z,3.00
2023-06-18T04:38:23.850Z,3.75
2023-06-18T04:40:52.720Z,3.25
2023-06-18T04:43:21.255Z,3.00
2023-06-18T04:45:50.374Z,3.25
2023-06-18T04:48:19.672Z,2.75
2023-06-18T04:50:48.348Z,3.25
2023-06-18T04:53:16.901Z,2.50
2023-06-18T04:55:46.156Z,4.00
2023-06-18T04:58:15.623Z,3.25
2023-06-18T05:00:44.042Z,3.00
2023-06-18T05:03:12.821Z,4.25
2023-06-18T05:05:41.745Z,4.75
2023-06-18T05:08:10.248Z,3.75
2023-06-18T05:10:38.708Z,4.25
2023-06-18T05:13:07.170Z,5.00
2023-06-18T05:15:35.641Z,4.00
2023-06-18T05:18:04.243Z,4.00
2023-06-18T05:20:32.747Z,4.50
2023-06-18T05:23:01.197Z,3.50
2023-06-18T05:25:29.632Z,6.75
2023-06-18T05:27:58.072Z,5.00
2023-06-18T05:30:26.804Z,5.25
2023-06-18T05:32:55.318Z,4.00
2023-06-18T05:35:23.756Z,3.50
2023-06-18T05:37:52.708Z,3.75
2023-06-18T05:40:21.546Z,6.00
2023-06-18T05:42:50.280Z,4.00
2023-06-18T05:45:18.815Z,3.75
2023-06-18T05:47:47.458Z,5.00
2023-06-18T05:50:15.986Z,4.00
2023-06-18T05:52:44.507Z,3.75
2023-06-18T05:55:13.000Z,4.50
2023-06-18T05:57:42.032Z,3.25
2023-06-18T06:00:12.288Z,3.50
2023-06-18T06:02:40.791Z,4.00
2023-06-18T06:05:09.651Z,4.00
2023-06-18T06:07:38.103Z,3.75
2023-06-18T06:10:06.967Z,3.00
2023-06-18T06:12:35.379Z,3.00
2023-06-18T06:15:04.389Z,3.75
2023-06-18T06:17:33.026Z,3.50
2023-06-18T06:20:01.583Z,3.50
2023-06-18T06:22:30.058Z,4.25
2023-06-18T06:24:58.553Z,3.75
2023-06-18T06:27:27.147Z,3.00
2023-06-18T06:29:55.549Z,3.75
2023-06-18T06:32:24.104Z,2.00
2023-06-18T06:34:53.119Z,4.00
2023-06-18T06:37:21.676Z,5.50
2023-06-18T06:39:50.805Z,3.25
2023-06-18T06:42:19.302Z,3.00
2023-06-18T06:44:47.775Z,3.00
2023-06-18T06:47:16.409Z,3.25
2023-06-18T06:49:46.940Z,4.75
2023-06-18T06:52:15.548Z,4.00
2023-06-18T06:54:44.486Z,3.75
2023-06-18T06:57:13.201Z,3.75
2023-06-18T06:59:41.835Z,4.25
2023-06-18T07:02:10.314Z,3.00
2023-06-18T07:04:38.827Z,4.00
2023-06-18T07:07:07.306Z,2.25
2023-06-18T07:09:35.750Z,3.00
2023-06-18T07:12:04.261Z,3.50
2023-06-18T07:14:32.896Z,2.75
2023-06-18T07:17:01.627Z,3.50
2023-06-18T07:19:30.098Z,3.50
2023-06-18T07:21:58.534Z,2.75
2023-06-18T07:24:27.079Z,3.50
2023-06-18T07:26:55.578Z,4.50
2023-06-18T07:29:24.127Z,3.75
2023-06-18T07:31:52.592Z,3.00
2023-06-18T07:34:21.056Z,3.00
2023-06-18T07:36:49.977Z,2.25
2023-06-18T07:39:20.113Z,2.50
2023-06-18T07:41:49.963Z,2.75
2023-06-18T07:44:18.482Z,2.25
2023-06-18T07:46:47.007Z,2.50
2023-06-18T07:49:15.642Z,2.50
2023-06-18T07:51:44.157Z,2.00
2023-06-18T07:54:12.625Z,3.25
2023-06-18T07:56:41.437Z,2.00
2023-06-18T07:59:10.227Z,2.75
2023-06-18T08:01:38.950Z,2.75
2023-06-18T08:04:07.640Z,4.00
2023-06-18T08:06:36.227Z,4.00
2023-06-18T08:09:04.697Z,4.00
2023-06-18T08:11:33.162Z,3.00
2023-06-18T08:14:01.617Z,2.25
2023-06-18T08:16:30.124Z,2.50
2023-06-18T08:18:58.720Z,2.50
2023-06-18T08:21:27.509Z,3.00
2023-06-18T08:23:55.981Z,4.00
2023-06-18T08:26:25.052Z,2.00
2023-06-18T08:28:53.567Z,3.00
2023-06-18T08:31:22.854Z,3.75
2023-06-18T08:33:52.362Z,3.50
2023-06-18T08:36:24.488Z,3.50
2023-06-18T08:38:53.212Z,2.75
2023-06-18T08:41:21.780Z,3.75
2023-06-18T08:43:50.416Z,2.25
2023-06-18T08:46:19.160Z,3.50
2023-06-18T08:48:56.925Z,3.50
2023-06-18T08:51:27.426Z,4.00
2023-06-18T08:54:14.863Z,3.25
2023-06-18T08:56:48.803Z,3.50
2023-06-18T08:59:17.436Z,3.25
2023-06-18T09:01:47.700Z,2.50
2023-06-18T09:04:18.139Z,4.25
2023-06-18T09:06:47.714Z,4.00
2023-06-18T09:09:16.424Z,5.50
2023-06-18T09:11:44.908Z,6.75
2023-06-18T09:14:13.482Z,5.00
2023-06-18T09:16:42.039Z,4.75
2023-06-18T09:19:10.672Z,6.00
2023-06-18T09:21:42.444Z,6.75
2023-06-18T09:24:11.003Z,9.25
2023-06-18T09:26:39.624Z,8.75
2023-06-18T09:29:09.975Z,6.50
2023-06-18T09:31:46.995Z,6.50
2023-06-18T09:34:20.101Z,8.25
2023-06-18T09:36:50.977Z,5.75
2023-06-18T09:39:26.428Z,7.25
2023-06-18T09:41:57.478Z,6.00
2023-06-18T09:44:25.990Z,4.00
2023-06-18T09:46:59.666Z,4.25
2023-06-18T09:49:29.857Z,3.25
2023-06-18T09:51:58.365Z,4.00
2023-06-18T09:54:40.738Z,4.50
2023-06-18T09:57:11.437Z,3.25
2023-06-18T09:59:40.153Z,3.25
2023-06-18T10:02:09.975Z,3.75
2023-06-18T10:04:40.337Z,2.00
2023-06-18T10:07:23.793Z,2.75
2023-06-18T10:09:53.047Z,2.00
2023-06-18T10:12:21.976Z,1.75
2023-06-18T10:14:58.880Z,3.00
2023-06-18T10:17:32.830Z,3.00
2023-06-18T10:20:11.324Z,3.25
2023-06-18T10:22:48.653Z,4.00
2023-06-18T10:25:17.380Z,3.75
2023-06-18T10:27:47.910Z,5.00
2023-06-18T10:30:16.879Z,3.50
2023-06-18T10:32:46.796Z,3.00
2023-06-18T10:35:16.047Z,3.00
2023-06-18T10:37:46.935Z,3.00
2023-06-18T10:40:16.328Z,4.50
2023-06-18T10:42:50.735Z,4.00
2023-06-18T10:45:21.146Z,4.50
2023-06-18T10:47:49.802Z,3.00
2023-06-18T10:50:22.151Z,3.00
2023-06-18T10:52:53.917Z,3.00
2023-06-18T10:55:30.806Z,2.00
2023-06-18T10:58:05.839Z,1.50
2023-06-18T11:00:42.576Z,2.00
2023-06-18T11:03:15.166Z,1.50
2023-06-18T11:05:47.714Z,1.25
2023-06-18T11:08:18.429Z,1.25
2023-06-18T11:10:49.921Z,2.00
2023-06-18T11:13:20.854Z,2.00
2023-06-18T11:16:02.662Z,2.00
2023-06-18T11:18:32.832Z,3.50
2023-06-18T11:21:04.805Z,2.75
2023-06-18T11:23:35.322Z,4.00
2023-06-18T11:26:04.097Z,2.00
2023-06-18T11:28:33.844Z,2.75
2023-06-18T11:31:06.125Z,3.00
2023-06-18T11:33:34.694Z,1.25
2023-06-18T11:36:09.655Z,2.25
2023-06-18T11:38:39.115Z,4.00
2023-06-18T11:41:07.743Z,3.25
2023-06-18T11:43:51.427Z,4.00
2023-06-18T11:46:37.560Z,4.50
2023-06-18T11:49:14.389Z,5.00
2023-06-18T11:51:42.964Z,3.00
2023-06-18T11:54:11.753Z,4.75
2023-06-18T11:56:40.318Z,3.75
2023-06-18T11:59:10.308Z,3.75
2023-06-18T12:01:38.830Z,4.00
2023-06-18T12:04:09.752Z,4.25
2023-06-18T12:06:39.809Z,5.00
2023-06-18T12:09:11.917Z,5.00
2023-06-18T12:12:10.127Z,4.25
2023-06-18T12:14:56.380Z,4.75
2023-06-18T12:18:02.899Z,4.25
2023-06-18T12:20:31.980Z,3.50
2023-06-18T12:23:03.259Z,3.00
2023-06-18T12:25:33.336Z,3.50
2023-06-18T12:28:06.614Z,4.50
2023-06-18T12:30:41.435Z,4.00
2023-06-18T12:33:15.998Z,5.50
2023-06-18T12:35:50.731Z,5.00
2023-06-18T12:38:20.153Z,5.50
2023-06-18T12:41:01.081Z,5.25
2023-06-18T12:43:29.611Z,4.25
2023-06-18T12:45:58.862Z,5.00
2023-06-18T12:48:27.649Z,3.00
2023-06-18T12:50:57.686Z,3.25
2023-06-18T12:53:29.358Z,2.00
2023-06-18T12:55:58.957Z,2.25
2023-06-18T12:58:29.992Z,2.25
2023-06-18T13:01:03.166Z,1.50
2023-06-18T13:03:32.484Z,2.25
2023-06-18T13:06:00.983Z,2.00
2023-06-18T13:08:29.737Z,1.75
2023-06-18T13:11:01.397Z,2.00
2023-06-18T13:13:30.121Z,2.25
2023-06-18T13:15:59.461Z,2.00
2023-06-18T13:18:28.188Z,1.25
2023-06-18T13:20:58.952Z,1.00
2023-06-18T13:23:27.507Z,2.00
2023-06-18T13:26:00.105Z,0.50
2023-06-18T13:28:36.698Z,2.00
2023-06-18T13:31:05.822Z,1.75
2023-06-18T13:33:34.329Z,1.50
2023-06-18T13:36:02.968Z,1.00
2023-06-18T13:38:31.572Z,1.25
2023-06-18T13:41:00.094Z,2.50
2023-06-18T13:43:28.627Z,1.25
2023-06-18T13:45:58.456Z,1.00
2023-06-18T13:48:27.224Z,1.75
2023-06-18T13:50:55.717Z,2.50
2023-06-18T13:53:25.215Z,1.25
2023-06-18T13:55:53.720Z,0.50
2023-06-18T13:58:22.629Z,0.00
2023-06-18T14:00:51.132Z,1.00
2023-06-18T14:03:20.589Z,0.00
2023-06-18T14:05:49.144Z,0.00
2023-06-18T14:08:18.139Z,0.75
2023-06-18T14:10:47.601Z,1.00
2023-06-18T14:13:17.265Z,0.00
2023-06-18T14:15:45.774Z,0.00
2023-06-18T14:18:14.520Z,1.00
2023-06-18T14:20:43.528Z,0.50
2023-06-18T14:23:12.424Z,1.00
2023-06-18T14:25:40.860Z,0.00
2023-06-18T14:28:09.310Z,0.00
2023-06-18T14:30:37.737Z,0.00
2023-06-18T14:33:06.549Z,0.00
2023-06-18T14:35:35.027Z,0.75
2023-06-18T14:38:03.457Z,0.50
2023-06-18T14:40:31.891Z,0.25
2023-06-18T14:43:00.350Z,0.00
2023-06-18T14:45:28.814Z,0.00
2023-06-18T14:47:57.431Z,0.00
2023-06-18T14:50:25.970Z,0.00
2023-06-18T14:52:55.458Z,1.00
2023-06-18T14:55:24.444Z,0.50
2023-06-18T14:57:53.058Z,1.00
2023-06-18T15:00:22.689Z,0.00
2023-06-18T15:02:51.224Z,1.00
2023-06-18T15:05:19.795Z,0.75
2023-06-18T15:07:48.504Z,0.00
2023-06-18T15:10:17.030Z,1.00
2023-06-18T15:12:49.448Z,0.00
2023-06-18T15:15:18.294Z,1.00
2023-06-18T15:17:46.853Z,1.00
2023-06-18T15:20:16.346Z,1.00
2023-06-18T15:22:44.812Z,1.25
2023-06-18T15:25:13.288Z,2.00
2023-06-18T15:27:43.480Z,0.50
2023-06-18T15:30:13.109Z,0.75
2023-06-18T15:32:41.680Z,1.00
2023-06-18T15:35:10.575Z,0.75
2023-06-18T15:37:39.082Z,0.50
2023-06-18T15:40:08.427Z,0.00
2023-06-18T15:42:36.840Z,1.25
2023-06-18T15:45:05.645Z,1.25
2023-06-18T15:47:34.285Z,1.75
2023-06-18T15:50:03.261Z,2.00
2023-06-18T15:52:32.890Z,1.75
2023-06-18T15:55:01.295Z,1.50
2023-06-18T15:57:29.750Z,1.00
2023-06-18T15:59:58.221Z,2.00
2023-06-18T16:02:26.714Z,1.75
2023-06-18T16:04:57.624Z,1.00
2023-06-18T16:07:26.112Z,1.25
2023-06-18T16:09:54.567Z,2.00
2023-06-18T16:12:24.128Z,2.00
2023-06-18T16:14:52.620Z,1.50
2023-06-18T16:17:21.098Z,1.00
2023-06-18T16:19:49.621Z,1.50
2023-06-18T16:22:18.912Z,1.00
2023-06-18T16:24:47.925Z,1.00
2023-06-18T16:27:16.925Z,1.00
2023-06-18T16:29:45.896Z,2.00
2023-06-18T16:32:14.388Z,1.25
2023-06-18T16:34:43.282Z,1.00
2023-06-18T16:37:12.028Z,1.25
2023-06-18T16:39:40.754Z,1.75
2023-06-18T16:42:10.709Z,1.75
2023-06-18T16:44:39.257Z,1.75
2023-06-18T16:47:07.855Z,1.50
2023-06-18T16:49:36.959Z,2.00
2023-06-18T16:52:06.211Z,1.00
2023-06-18T16:54:34.757Z,1.75
2023-06-18T16:57:03.510Z,3.00
2023-06-18T16:59:32.554Z,2.75
2023-06-18T17:02:01.307Z,2.00
2023-06-18T17:04:29.881Z,2.00
2023-06-18T17:06:58.466Z,2.00
2023-06-18T17:09:27.268Z,2.00
2023-06-18T17:11:55.756Z,1.75
2023-06-18T17:14:24.192Z,1.00
2023-06-18T17:16:53.002Z,2.00
2023-06-18T17:19:21.816Z,2.00
2023-06-18T17:21:50.285Z,1.50
2023-06-18T17:24:19.026Z,2.00
2023-06-18T17:26:47.517Z,1.00
2023-06-18T17:29:16.735Z,2.00
2023-06-18T17:31:45.165Z,1.50
2023-06-18T17:34:13.619Z,2.00
2023-06-18T17:36:42.206Z,2.00
2023-06-18T17:39:12.479Z,3.00
2023-06-18T17:41:40.936Z,2.75
2023-06-18T17:44:09.851Z,1.50
2023-06-18T17:46:38.411Z,1.00
2023-06-18T17:49:06.875Z,2.00
2023-06-18T17:51:35.284Z,2.25
2023-06-18T17:54:03.730Z,2.75
2023-06-18T17:56:34.093Z,3.00
2023-06-18T17:59:04.101Z,2.00
2023-06-18T18:01:33.406Z,1.75
2023-06-18T18:04:02.145Z,2.00
2023-06-18T18:06:30.718Z,2.00
2023-06-18T18:09:00.191Z,1.50
2023-06-18T18:11:30.036Z,2.00
2023-06-18T18:13:58.903Z,1.50
2023-06-18T18:16:27.435Z,2.00
2023-06-18T18:18:57.628Z,2.00
2023-06-18T18:21:26.329Z,2.75
2023-06-18T18:23:55.072Z,2.00
2023-06-18T18:26:32.205Z,2.00
2023-06-18T18:29:07.557Z,2.00
2023-06-18T18:31:36.238Z,2.00
2023-06-18T18:34:04.810Z,2.00
2023-06-18T18:36:33.282Z,2.00
2023-06-18T18:39:01.773Z,2.00
2023-06-18T18:41:30.512Z,2.00
2023-06-18T18:43:59.022Z,1.00
2023-06-18T18:46:27.520Z,2.00
2023-06-18T18:48:55.995Z,2.00
2023-06-18T18:51:24.623Z,2.00
2023-06-18T18:53:53.200Z,2.00
2023-06-18T18:56:21.688Z,2.00
2023-06-18T18:58:50.673Z,2.00
2023-06-18T19:01:19.242Z,1.00
2023-06-18T19:03:48.000Z,1.00
2023-06-18T19:06:16.660Z,2.75
2023-06-18T19:08:45.360Z,1.75
2023-06-18T19:11:14.075Z,2.00
2023-06-18T19:13:42.511Z,2.00
2023-06-18T19:16:11.565Z,1.00
2023-06-18T19:18:42.180Z,2.50
2023-06-18T19:21:10.805Z,1.50
2023-06-18T19:23:39.301Z,2.00
2023-06-18T19:26:08.008Z,2.00
2023-06-18T19:28:36.446Z,1.00
2023-06-18T19:31:04.893Z,1.25
2023-06-18T19:33:33.462Z,1.25
2023-06-18T19:36:02.157Z,2.00
2023-06-18T19:38:33.938Z,2.00
2023-06-18T19:41:03.986Z,1.75
2023-06-18T19:43:32.389Z,2.00
2023-06-18T19:46:00.964Z,1.50
2023-06-18T19:48:29.515Z,2.25
2023-06-18T19:50:58.209Z,2.00
2023-06-18T19:53:27.070Z,2.00
2023-06-18T19:55:55.523Z,2.00
2023-06-18T19:58:24.375Z,1.75
2023-06-18T20:00:55.177Z,2.00
2023-06-18T20:03:25.092Z,1.00
2023-06-18T20:05:55.072Z,2.00
2023-06-18T20:08:25.820Z,2.00
2023-06-18T20:10:55.532Z,1.00
2023-06-18T20:13:23.977Z,1.75
2023-06-18T20:15:52.861Z,1.50
2023-06-18T20:18:21.341Z,2.25
2023-06-18T20:20:50.659Z,2.50
2023-06-18T20:23:19.312Z,2.50
2023-06-18T20:25:47.776Z,3.00
2023-06-18T20:28:16.857Z,1.00
2023-06-18T20:30:45.977Z,1.50
2023-06-18T20:33:14.914Z,1.00
2023-06-18T20:35:43.356Z,1.75
2023-06-18T20:38:11.912Z,1.25
2023-06-18T20:40:40.462Z,2.00
2023-06-18T20:43:09.213Z,1.75
2023-06-18T20:45:37.751Z,1.75
2023-06-18T20:48:07.545Z,1.00
2023-06-18T20:50:36.260Z,1.25
2023-06-18T20:53:04.813Z,2.00
2023-06-18T20:55:33.273Z,1.00
2023-06-18T20:58:01.892Z,1.00
2023-06-18T21:00:30.483Z,1.50
2023-06-18T21:02:59.119Z,1.00
2023-06-18T21:05:27.695Z,1.00
2023-06-18T21:07:56.189Z,1.75
2023-06-18T21:10:25.212Z,2.00
2023-06-18T21:12:53.786Z,1.00
2023-06-18T21:15:22.806Z,1.25
2023-06-18T21:17:51.397Z,1.75
2023-06-18T21:20:22.623Z,1.25
2023-06-18T21:22:53.528Z,1.00
2023-06-18T21:25:22.140Z,1.00
2023-06-18T21:27:50.747Z,2.00
2023-06-18T21:30:19.171Z,0.75
2023-06-18T21:32:48.098Z,1.50
2023-06-18T21:35:17.206Z,1.00
2023-06-18T21:37:47.626Z,1.00
2023-06-18T21:40:17.389Z,1.25
2023-06-18T21:42:46.715Z,1.00
2023-06-18T21:45:15.605Z,1.00
2023-06-18T21:47:44.190Z,1.00
2023-06-18T21:50:12.925Z,2.00
2023-06-18T21:52:41.542Z,2.00
2023-06-18T21:55:10.359Z,1.00
2023-06-18T21:57:39.676Z,2.00
2023-06-18T22:00:11.505Z,0.00
2023-06-18T22:02:40.754Z,1.00
2023-06-18T22:05:09.462Z,0.50
2023-06-18T22:07:39.917Z,1.75
2023-06-18T22:10:09.489Z,0.50
2023-06-18T22:12:38.179Z,1.75
2023-06-18T22:15:08.154Z,1.00
2023-06-18T22:17:37.025Z,1.00
2023-06-18T22:20:08.754Z,1.00
2023-06-18T22:22:38.170Z,1.00
2023-06-18T22:25:07.603Z,1.75
2023-06-18T22:27:36.672Z,0.75
2023-06-18T22:30:05.720Z,2.00
2023-06-18T22:32:34.239Z,1.00
2023-06-18T22:35:02.681Z,0.00
2023-06-18T22:37:31.283Z,1.50
2023-06-18T22:40:02.840Z,0.25
2023-06-18T22:42:33.498Z,0.00
2023-06-18T22:45:02.631Z,1.00
2023-06-18T22:47:31.149Z,0.00
2023-06-18T22:50:00.854Z,0.00
2023-06-18T22:52:29.417Z,1.00
2023-06-18T22:54:57.962Z,0.00
2023-06-18T22:57:26.415Z,0.75
2023-06-18T22:59:54.841Z,0.00
2023-06-18T23:02:23.361Z,0.00
2023-06-18T23:04:51.882Z,0.00
2023-06-18T23:07:20.317Z,0.75
2023-06-18T23:09:49.019Z,0.25
2023-06-18T23:12:17.521Z,0.00
2023-06-18T23:14:46.003Z,0.75
2023-06-18T23:17:14.484Z,0.00
2023-06-18T23:19:42.948Z,0.00
2023-06-18T23:22:12.024Z,0.00
2023-06-18T23:24:40.565Z,1.00
2023-06-18T23:27:10.094Z,0.00
2023-06-18T23:29:41.275Z,0.00
2023-06-18T23:32:10.232Z,0.50
2023-06-18T23:34:44.848Z,0.25
2023-06-18T23:37:13.404Z,1.25
2023-06-18T23:39:41.872Z,0.25
2023-06-18T23:42:10.402Z,0.50
2023-06-18T23:44:38.933Z,0.00
2023-06-18T23:47:08.072Z,1.00
2023-06-18T23:49:36.526Z,0.50
2023-06-18T23:52:06.342Z,0.00
2023-06-18T23:54:34.873Z,1.25
2023-06-18T23:57:03.356Z,2.00
2023-06-18T23:59:32.669Z,1.25
